sensor_id;sensor_type;location;lat;lon;timestamp;noise_LAeq;noise_LA_min;noise_LA_max;noise_LA01;noise_LA95
58303;Laerm;44109;52.398;7.024;2023-12-28T00:00:02;49.15;38.41;61.82;;
58303;Laerm;44109;52.398;7.024;2023-12-28T00:02:29;49.56;38.83;68.27;;
58303;Laerm;44109;52.398;7.024;2023-12-28T00:04:58;49.26;37.13;65.00;;
58303;Laerm;44109;52.398;7.024;2023-12-28T00:07:26;52.32;38.86;67.45;;
58303;Laerm;44109;52.398;7.024;2023-12-28T00:09:53;46.70;36.49;56.71;;
58303;Laerm;44109;52.398;7.024;2023-12-28T00:12:21;45.97;35.32;57.54;;
58303;Laerm;44109;52.398;7.024;2023-12-28T00:14:49;47.01;36.54;58.98;;
58303;Laerm;44109;52.398;7.024;2023-12-28T00:17:17;47.05;36.23;71.00;;
58303;Laerm;44109;52.398;7.024;2023-12-28T00:19:45;48.42;39.73;58.90;;
58303;Laerm;44109;52.398;7.024;2023-12-28T00:22:14;47.10;36.96;57.36;;
58303;Laerm;44109;52.398;7.024;2023-12-28T00:24:42;49.59;36.28;68.68;;
58303;Laerm;44109;52.398;7.024;2023-12-28T00:27:09;47.02;36.71;62.15;;
58303;Laerm;44109;52.398;7.024;2023-12-28T00:29:37;46.17;34.59;57.06;;
58303;Laerm;44109;52.398;7.024;2023-12-28T00:32:06;46.53;35.41;56.59;;
58303;Laerm;44109;52.398;7.024;2023-12-28T00:34:33;46.33;34.79;56.93;;
58303;Laerm;44109;52.398;7.024;2023-12-28T00:37:03;48.45;36.20;63.03;;
58303;Laerm;44109;52.398;7.024;2023-12-28T00:39:32;47.02;35.30;57.06;;
58303;Laerm;44109;52.398;7.024;2023-12-28T00:42:01;46.60;36.98;58.21;;
58303;Laerm;44109;52.398;7.024;2023-12-28T00:44:29;48.43;37.77;57.01;;
58303;Laerm;44109;52.398;7.024;2023-12-28T00:46:57;47.74;36.77;59.62;;
58303;Laerm;44109;52.398;7.024;2023-12-28T00:49:24;49.20;38.41;57.98;;
58303;Laerm;44109;52.398;7.024;2023-12-28T00:51:52;47.08;35.67;56.36;;
58303;Laerm;44109;52.398;7.024;2023-12-28T00:54:19;47.32;36.61;59.78;;
58303;Laerm;44109;52.398;7.024;2023-12-28T00:56:48;47.56;36.48;58.79;;
58303;Laerm;44109;52.398;7.024;2023-12-28T00:59:17;47.00;36.66;56.83;;
58303;Laerm;44109;52.398;7.024;2023-12-28T01:01:44;48.62;38.25;56.67;;
58303;Laerm;44109;52.398;7.024;2023-12-28T01:04:12;48.48;37.40;59.48;;
58303;Laerm;44109;52.398;7.024;2023-12-28T01:06:38;47.63;37.32;56.62;;
58303;Laerm;44109;52.398;7.024;2023-12-28T01:09:07;47.01;37.22;62.65;;
58303;Laerm;44109;52.398;7.024;2023-12-28T01:11:34;47.10;35.65;56.93;;
58303;Laerm;44109;52.398;7.024;2023-12-28T01:14:03;47.89;38.55;58.37;;
58303;Laerm;44109;52.398;7.024;2023-12-28T01:16:31;48.52;38.56;56.85;;
58303;Laerm;44109;52.398;7.024;2023-12-28T01:18:59;55.00;36.82;72.01;;
58303;Laerm;44109;52.398;7.024;2023-12-28T01:21:26;52.46;39.91;70.95;;
58303;Laerm;44109;52.398;7.024;2023-12-28T01:23:54;51.07;41.55;62.18;;
58303;Laerm;44109;52.398;7.024;2023-12-28T01:26:22;50.93;41.89;63.86;;
58303;Laerm;44109;52.398;7.024;2023-12-28T01:28:50;50.82;39.23;64.97;;
58303;Laerm;44109;52.398;7.024;2023-12-28T01:31:19;49.85;39.45;65.56;;
58303;Laerm;44109;52.398;7.024;2023-12-28T01:33:46;47.95;37.35;62.28;;
58303;Laerm;44109;52.398;7.024;2023-12-28T01:36:18;49.97;41.90;63.02;;
58303;Laerm;44109;52.398;7.024;2023-12-28T01:38:46;50.47;38.95;63.59;;
58303;Laerm;44109;52.398;7.024;2023-12-28T01:41:14;52.80;41.57;70.80;;
58303;Laerm;44109;52.398;7.024;2023-12-28T01:43:42;46.81;34.96;56.01;;
58303;Laerm;44109;52.398;7.024;2023-12-28T04:45:52;50.45;41.04;69.69;;
58303;Laerm;44109;52.398;7.024;2023-12-28T04:48:20;51.28;39.88;66.06;;
58303;Laerm;44109;52.398;7.024;2023-12-28T04:50:50;48.96;38.93;61.40;;
58303;Laerm;44109;52.398;7.024;2023-12-28T04:53:18;50.10;40.55;64.49;;
58303;Laerm;44109;52.398;7.024;2023-12-28T04:55:46;51.31;37.59;66.51;;
58303;Laerm;44109;52.398;7.024;2023-12-28T04:58:14;50.01;40.43;69.02;;
58303;Laerm;44109;52.398;7.024;2023-12-28T05:00:41;47.63;38.29;62.83;;
58303;Laerm;44109;52.398;7.024;2023-12-28T05:03:11;49.54;38.66;64.90;;
58303;Laerm;44109;52.398;7.024;2023-12-28T05:05:39;51.00;37.38;59.24;;
58303;Laerm;44109;52.398;7.024;2023-12-28T05:08:08;49.72;41.16;63.63;;
58303;Laerm;44109;52.398;7.024;2023-12-28T05:10:35;51.11;39.61;65.93;;
58303;Laerm;44109;52.398;7.024;2023-12-28T05:13:03;50.37;42.59;62.84;;
58303;Laerm;44109;52.398;7.024;2023-12-28T05:15:31;51.29;39.65;71.28;;
58303;Laerm;44109;52.398;7.024;2023-12-28T05:17:58;56.38;41.78;83.55;;
58303;Laerm;44109;52.398;7.024;2023-12-28T05:20:27;52.40;43.70;62.91;;
58303;Laerm;44109;52.398;7.024;2023-12-28T05:22:55;51.51;39.22;73.89;;
58303;Laerm;44109;52.398;7.024;2023-12-28T05:25:23;54.68;41.66;73.49;;
58303;Laerm;44109;52.398;7.024;2023-12-28T05:27:50;48.08;37.91;71.68;;
58303;Laerm;44109;52.398;7.024;2023-12-28T05:30:18;51.20;42.47;60.44;;
58303;Laerm;44109;52.398;7.024;2023-12-28T05:32:46;52.46;45.38;64.23;;
58303;Laerm;44109;52.398;7.024;2023-12-28T05:35:14;54.25;47.75;67.74;;
58303;Laerm;44109;52.398;7.024;2023-12-28T05:37:42;49.93;42.76;63.59;;
58303;Laerm;44109;52.398;7.024;2023-12-28T05:40:12;54.50;43.10;70.49;;
58303;Laerm;44109;52.398;7.024;2023-12-28T05:42:40;54.57;47.16;73.73;;
58303;Laerm;44109;52.398;7.024;2023-12-28T05:45:10;51.02;45.71;62.80;;
58303;Laerm;44109;52.398;7.024;2023-12-28T05:47:38;53.28;45.62;68.23;;
58303;Laerm;44109;52.398;7.024;2023-12-28T05:50:07;52.46;47.14;65.15;;
58303;Laerm;44109;52.398;7.024;2023-12-28T05:52:34;55.50;45.78;74.19;;
58303;Laerm;44109;52.398;7.024;2023-12-28T05:55:04;57.34;47.77;78.03;;
58303;Laerm;44109;52.398;7.024;2023-12-28T05:57:32;55.21;47.65;73.36;;
58303;Laerm;44109;52.398;7.024;2023-12-28T05:59:59;54.25;46.61;72.60;;
58303;Laerm;44109;52.398;7.024;2023-12-28T06:02:28;52.62;46.75;68.27;;
58303;Laerm;44109;52.398;7.024;2023-12-28T06:04:56;53.33;45.96;69.65;;
58303;Laerm;44109;52.398;7.024;2023-12-28T06:07:23;53.47;46.24;69.87;;
58303;Laerm;44109;52.398;7.024;2023-12-28T06:09:52;53.03;46.69;64.16;;
58303;Laerm;44109;52.398;7.024;2023-12-28T06:12:22;51.92;45.48;58.50;;
58303;Laerm;44109;52.398;7.024;2023-12-28T06:14:49;52.26;45.59;64.99;;
58303;Laerm;44109;52.398;7.024;2023-12-28T06:17:17;51.74;43.94;68.81;;
58303;Laerm;44109;52.398;7.024;2023-12-28T06:19:45;53.80;44.37;66.29;;
58303;Laerm;44109;52.398;7.024;2023-12-28T06:22:13;52.73;43.90;67.43;;
58303;Laerm;44109;52.398;7.024;2023-12-28T06:24:41;51.66;44.08;58.31;;
58303;Laerm;44109;52.398;7.024;2023-12-28T06:27:09;55.22;48.36;65.65;;
58303;Laerm;44109;52.398;7.024;2023-12-28T06:29:38;52.07;42.05;64.15;;
58303;Laerm;44109;52.398;7.024;2023-12-28T06:32:06;51.20;41.53;61.26;;
58303;Laerm;44109;52.398;7.024;2023-12-28T06:34:33;50.78;41.78;60.03;;
58303;Laerm;44109;52.398;7.024;2023-12-28T06:37:01;51.12;43.90;70.35;;
58303;Laerm;44109;52.398;7.024;2023-12-28T06:39:28;50.37;43.71;59.55;;
58303;Laerm;44109;52.398;7.024;2023-12-28T06:41:56;51.93;44.40;59.16;;
58303;Laerm;44109;52.398;7.024;2023-12-28T06:44:24;52.73;43.94;66.99;;
58303;Laerm;44109;52.398;7.024;2023-12-28T06:46:54;52.50;43.39;67.94;;
58303;Laerm;44109;52.398;7.024;2023-12-28T06:49:22;51.51;41.97;66.10;;
58303;Laerm;44109;52.398;7.024;2023-12-28T06:51:50;50.96;42.13;59.20;;
58303;Laerm;44109;52.398;7.024;2023-12-28T06:54:18;53.78;44.49;65.74;;
58303;Laerm;44109;52.398;7.024;2023-12-28T06:56:45;56.17;44.67;72.53;;
58303;Laerm;44109;52.398;7.024;2023-12-28T06:59:13;50.65;42.61;61.22;;
58303;Laerm;44109;52.398;7.024;2023-12-28T07:01:41;52.03;43.79;60.17;;
58303;Laerm;44109;52.398;7.024;2023-12-28T07:04:14;51.60;43.16;64.39;;
58303;Laerm;44109;52.398;7.024;2023-12-28T07:06:42;51.44;43.90;63.48;;
58303;Laerm;44109;52.398;7.024;2023-12-28T07:09:09;53.67;44.92;64.20;;
58303;Laerm;44109;52.398;7.024;2023-12-28T07:11:39;51.94;44.34;67.35;;
58303;Laerm;44109;52.398;7.024;2023-12-28T07:14:07;54.43;46.16;71.14;;
58303;Laerm;44109;52.398;7.024;2023-12-28T07:16:34;53.39;45.69;64.74;;
58303;Laerm;44109;52.398;7.024;2023-12-28T07:19:04;55.55;44.38;82.79;;
58303;Laerm;44109;52.398;7.024;2023-12-28T07:21:33;52.68;44.45;66.58;;
58303;Laerm;44109;52.398;7.024;2023-12-28T07:24:01;54.04;47.30;66.26;;
58303;Laerm;44109;52.398;7.024;2023-12-28T07:26:28;53.60;47.36;73.78;;
58303;Laerm;44109;52.398;7.024;2023-12-28T07:28:56;53.39;47.06;70.40;;
58303;Laerm;44109;52.398;7.024;2023-12-28T07:31:24;52.11;44.42;60.60;;
58303;Laerm;44109;52.398;7.024;2023-12-28T07:33:54;52.67;44.39;69.55;;
58303;Laerm;44109;52.398;7.024;2023-12-28T07:36:22;54.62;44.64;72.79;;
58303;Laerm;44109;52.398;7.024;2023-12-28T07:38:51;55.08;46.41;79.08;;
58303;Laerm;44109;52.398;7.024;2023-12-28T07:41:18;54.83;47.05;72.20;;
58303;Laerm;44109;52.398;7.024;2023-12-28T07:43:46;53.96;48.73;68.91;;
58303;Laerm;44109;52.398;7.024;2023-12-28T07:46:14;54.55;44.53;74.64;;
58303;Laerm;44109;52.398;7.024;2023-12-28T07:48:41;52.66;45.69;66.93;;
58303;Laerm;44109;52.398;7.024;2023-12-28T07:51:09;53.92;45.96;71.87;;
58303;Laerm;44109;52.398;7.024;2023-12-28T07:53:36;53.16;45.03;73.30;;
58303;Laerm;44109;52.398;7.024;2023-12-28T07:56:06;51.78;43.28;65.35;;
58303;Laerm;44109;52.398;7.024;2023-12-28T07:58:37;54.25;46.25;73.11;;
58303;Laerm;44109;52.398;7.024;2023-12-28T08:01:10;53.78;45.92;65.87;;
58303;Laerm;44109;52.398;7.024;2023-12-28T08:03:38;53.93;44.94;72.06;;
58303;Laerm;44109;52.398;7.024;2023-12-28T08:06:06;50.72;44.05;67.79;;
58303;Laerm;44109;52.398;7.024;2023-12-28T08:08:33;51.26;43.78;62.51;;
58303;Laerm;44109;52.398;7.024;2023-12-28T08:11:04;51.56;42.88;60.30;;
58303;Laerm;44109;52.398;7.024;2023-12-28T08:13:33;51.35;44.32;67.08;;
58303;Laerm;44109;52.398;7.024;2023-12-28T08:16:00;53.20;44.80;68.35;;
58303;Laerm;44109;52.398;7.024;2023-12-28T08:18:29;51.60;44.62;61.04;;
58303;Laerm;44109;52.398;7.024;2023-12-28T08:20:56;54.63;45.99;70.73;;
58303;Laerm;44109;52.398;7.024;2023-12-28T08:23:25;55.37;48.27;72.92;;
58303;Laerm;44109;52.398;7.024;2023-12-28T08:25:53;52.42;44.37;64.60;;
58303;Laerm;44109;52.398;7.024;2023-12-28T08:28:21;52.34;45.28;66.42;;
58303;Laerm;44109;52.398;7.024;2023-12-28T08:30:51;53.00;47.13;66.16;;
58303;Laerm;44109;52.398;7.024;2023-12-28T08:33:18;53.34;47.43;65.32;;
58303;Laerm;44109;52.398;7.024;2023-12-28T08:35:46;49.90;42.04;61.97;;
58303;Laerm;44109;52.398;7.024;2023-12-28T08:38:14;52.97;42.87;65.34;;
58303;Laerm;44109;52.398;7.024;2023-12-28T08:40:42;55.25;44.38;72.41;;
58303;Laerm;44109;52.398;7.024;2023-12-28T08:43:10;54.78;47.36;71.44;;
58303;Laerm;44109;52.398;7.024;2023-12-28T08:45:38;54.88;47.89;71.73;;
58303;Laerm;44109;52.398;7.024;2023-12-28T08:48:09;52.50;45.32;72.94;;
58303;Laerm;44109;52.398;7.024;2023-12-28T08:50:36;57.14;44.05;75.79;;
58303;Laerm;44109;52.398;7.024;2023-12-28T08:53:04;55.32;47.11;72.33;;
58303;Laerm;44109;52.398;7.024;2023-12-28T08:55:34;52.84;44.18;74.32;;
58303;Laerm;44109;52.398;7.024;2023-12-28T08:58:01;55.73;48.84;73.80;;
58303;Laerm;44109;52.398;7.024;2023-12-28T09:00:29;54.91;46.25;70.96;;
58303;Laerm;44109;52.398;7.024;2023-12-28T09:02:56;55.75;48.27;71.83;;
58303;Laerm;44109;52.398;7.024;2023-12-28T09:05:25;54.38;47.92;74.70;;
58303;Laerm;44109;52.398;7.024;2023-12-28T09:07:53;55.97;46.79;73.96;;
58303;Laerm;44109;52.398;7.024;2023-12-28T09:10:21;53.75;45.25;66.02;;
58303;Laerm;44109;52.398;7.024;2023-12-28T09:12:49;52.46;43.77;70.14;;
58303;Laerm;44109;52.398;7.024;2023-12-28T09:15:17;52.61;44.58;62.73;;
58303;Laerm;44109;52.398;7.024;2023-12-28T09:17:44;53.80;44.74;64.43;;
58303;Laerm;44109;52.398;7.024;2023-12-28T09:20:12;52.64;44.81;61.10;;
58303;Laerm;44109;52.398;7.024;2023-12-28T09:22:41;53.25;46.93;67.95;;
58303;Laerm;44109;52.398;7.024;2023-12-28T09:25:09;54.68;48.34;69.53;;
58303;Laerm;44109;52.398;7.024;2023-12-28T09:27:38;53.26;48.47;62.24;;
58303;Laerm;44109;52.398;7.024;2023-12-28T09:30:08;54.04;45.58;64.99;;
58303;Laerm;44109;52.398;7.024;2023-12-28T09:32:40;54.73;47.28;78.18;;
58303;Laerm;44109;52.398;7.024;2023-12-28T09:35:07;55.81;46.44;72.28;;
58303;Laerm;44109;52.398;7.024;2023-12-28T09:37:35;52.37;46.27;62.76;;
58303;Laerm;44109;52.398;7.024;2023-12-28T09:40:09;53.19;46.00;66.24;;
58303;Laerm;44109;52.398;7.024;2023-12-28T09:42:43;53.80;47.31;72.21;;
58303;Laerm;44109;52.398;7.024;2023-12-28T09:45:14;55.86;46.46;69.69;;
58303;Laerm;44109;52.398;7.024;2023-12-28T09:47:44;53.04;45.87;70.43;;
58303;Laerm;44109;52.398;7.024;2023-12-28T09:50:14;54.47;47.50;67.40;;
58303;Laerm;44109;52.398;7.024;2023-12-28T09:52:44;54.53;47.48;72.36;;
58303;Laerm;44109;52.398;7.024;2023-12-28T09:55:14;54.24;45.93;74.33;;
58303;Laerm;44109;52.398;7.024;2023-12-28T09:57:42;55.70;49.32;66.35;;
58303;Laerm;44109;52.398;7.024;2023-12-28T10:00:12;53.73;46.04;70.90;;
58303;Laerm;44109;52.398;7.024;2023-12-28T10:02:44;55.94;48.62;67.46;;
58303;Laerm;44109;52.398;7.024;2023-12-28T10:05:15;57.66;51.61;75.46;;
58303;Laerm;44109;52.398;7.024;2023-12-28T10:07:44;56.54;50.01;78.06;;
58303;Laerm;44109;52.398;7.024;2023-12-28T10:10:11;55.80;47.71;66.19;;
58303;Laerm;44109;52.398;7.024;2023-12-28T10:12:40;56.34;47.63;74.03;;
58303;Laerm;44109;52.398;7.024;2023-12-28T10:15:12;54.92;47.51;67.90;;
58303;Laerm;44109;52.398;7.024;2023-12-28T10:17:39;56.62;50.43;70.59;;
58303;Laerm;44109;52.398;7.024;2023-12-28T10:20:08;58.21;50.94;72.13;;
58303;Laerm;44109;52.398;7.024;2023-12-28T10:22:38;56.14;48.87;69.33;;
58303;Laerm;44109;52.398;7.024;2023-12-28T10:25:08;55.20;48.91;78.75;;
58303;Laerm;44109;52.398;7.024;2023-12-28T10:27:41;54.11;46.56;70.45;;
58303;Laerm;44109;52.398;7.024;2023-12-28T10:30:10;56.72;45.93;78.72;;
58303;Laerm;44109;52.398;7.024;2023-12-28T10:32:40;55.80;48.40;68.17;;
58303;Laerm;44109;52.398;7.024;2023-12-28T10:35:08;54.62;47.49;71.24;;
58303;Laerm;44109;52.398;7.024;2023-12-28T10:37:36;54.42;47.46;70.85;;
58303;Laerm;44109;52.398;7.024;2023-12-28T10:40:12;54.45;46.64;78.26;;
58303;Laerm;44109;52.398;7.024;2023-12-28T10:42:52;55.73;47.90;70.89;;
58303;Laerm;44109;52.398;7.024;2023-12-28T10:45:25;53.68;47.24;72.32;;
58303;Laerm;44109;52.398;7.024;2023-12-28T10:48:04;58.49;48.60;73.39;;
58303;Laerm;44109;52.398;7.024;2023-12-28T10:50:40;54.36;47.90;70.48;;
58303;Laerm;44109;52.398;7.024;2023-12-28T10:53:37;56.76;47.77;79.70;;
58303;Laerm;44109;52.398;7.024;2023-12-28T10:56:21;57.13;50.04;67.66;;
58303;Laerm;44109;52.398;7.024;2023-12-28T10:59:06;54.79;47.55;66.54;;
58303;Laerm;44109;52.398;7.024;2023-12-28T11:01:42;57.28;48.81;68.99;;
58303;Laerm;44109;52.398;7.024;2023-12-28T11:04:23;57.00;49.32;73.77;;
58303;Laerm;44109;52.398;7.024;2023-12-28T11:06:53;55.61;50.77;69.63;;
58303;Laerm;44109;52.398;7.024;2023-12-28T11:09:22;55.44;49.19;69.30;;
58303;Laerm;44109;52.398;7.024;2023-12-28T11:11:54;54.46;45.50;74.66;;
58303;Laerm;44109;52.398;7.024;2023-12-28T11:14:27;53.58;45.89;64.25;;
58303;Laerm;44109;52.398;7.024;2023-12-28T11:16:57;54.74;47.76;75.79;;
58303;Laerm;44109;52.398;7.024;2023-12-28T11:19:27;52.38;46.79;63.14;;
58303;Laerm;44109;52.398;7.024;2023-12-28T11:21:56;52.93;45.35;66.46;;
58303;Laerm;44109;52.398;7.024;2023-12-28T11:24:27;54.81;46.55;74.43;;
58303;Laerm;44109;52.398;7.024;2023-12-28T11:26:56;54.22;47.32;75.56;;
58303;Laerm;44109;52.398;7.024;2023-12-28T11:29:32;54.47;44.59;82.94;;
58303;Laerm;44109;52.398;7.024;2023-12-28T11:32:03;55.87;47.90;81.84;;
58303;Laerm;44109;52.398;7.024;2023-12-28T11:34:32;53.61;47.82;62.95;;
58303;Laerm;44109;52.398;7.024;2023-12-28T11:37:08;54.14;47.48;68.61;;
58303;Laerm;44109;52.398;7.024;2023-12-28T11:39:37;52.45;46.56;66.39;;
58303;Laerm;44109;52.398;7.024;2023-12-28T11:42:07;55.74;48.97;63.85;;
58303;Laerm;44109;52.398;7.024;2023-12-28T11:44:40;54.47;48.87;61.94;;
58303;Laerm;44109;52.398;7.024;2023-12-28T11:47:14;56.46;45.04;82.91;;
58303;Laerm;44109;52.398;7.024;2023-12-28T11:49:42;59.12;49.21;84.42;;
58303;Laerm;44109;52.398;7.024;2023-12-28T11:52:23;58.08;50.09;74.68;;
58303;Laerm;44109;52.398;7.024;2023-12-28T11:54:52;54.48;48.73;70.01;;
58303;Laerm;44109;52.398;7.024;2023-12-28T11:57:20;54.87;46.48;73.92;;
58303;Laerm;44109;52.398;7.024;2023-12-28T11:59:58;51.85;45.25;64.81;;
58303;Laerm;44109;52.398;7.024;2023-12-28T12:02:26;53.02;47.44;64.36;;
58303;Laerm;44109;52.398;7.024;2023-12-28T12:04:54;52.92;45.73;74.76;;
58303;Laerm;44109;52.398;7.024;2023-12-28T12:07:24;54.63;48.75;71.39;;
58303;Laerm;44109;52.398;7.024;2023-12-28T12:09:55;57.89;51.53;70.77;;
58303;Laerm;44109;52.398;7.024;2023-12-28T12:12:24;56.83;49.70;72.50;;
58303;Laerm;44109;52.398;7.024;2023-12-28T12:14:54;54.92;47.79;69.91;;
58303;Laerm;44109;52.398;7.024;2023-12-28T12:17:22;55.17;47.74;72.49;;
58303;Laerm;44109;52.398;7.024;2023-12-28T12:19:50;58.32;47.61;82.30;;
58303;Laerm;44109;52.398;7.024;2023-12-28T12:22:21;54.82;45.91;70.97;;
58303;Laerm;44109;52.398;7.024;2023-12-28T12:24:50;72.93;47.99;107.80;;
58303;Laerm;44109;52.398;7.024;2023-12-28T12:27:19;55.00;47.49;68.73;;
58303;Laerm;44109;52.398;7.024;2023-12-28T12:29:50;57.40;49.06;81.17;;
58303;Laerm;44109;52.398;7.024;2023-12-28T12:32:19;57.51;49.67;81.75;;
58303;Laerm;44109;52.398;7.024;2023-12-28T12:34:49;53.76;46.45;62.91;;
58303;Laerm;44109;52.398;7.024;2023-12-28T12:37:17;55.58;48.99;70.29;;
58303;Laerm;44109;52.398;7.024;2023-12-28T12:39:45;53.02;45.41;64.49;;
58303;Laerm;44109;52.398;7.024;2023-12-28T12:42:13;55.02;46.35;66.04;;
58303;Laerm;44109;52.398;7.024;2023-12-28T12:44:41;58.74;49.02;80.50;;
58303;Laerm;44109;52.398;7.024;2023-12-28T12:47:08;54.14;46.81;73.38;;
58303;Laerm;44109;52.398;7.024;2023-12-28T12:49:37;55.93;47.88;74.04;;
58303;Laerm;44109;52.398;7.024;2023-12-28T12:52:07;55.53;47.00;78.66;;
58303;Laerm;44109;52.398;7.024;2023-12-28T12:54:34;52.19;46.22;58.70;;
58303;Laerm;44109;52.398;7.024;2023-12-28T12:57:03;54.58;46.79;71.34;;
58303;Laerm;44109;52.398;7.024;2023-12-28T12:59:31;54.01;48.16;72.03;;
58303;Laerm;44109;52.398;7.024;2023-12-28T13:02:00;55.30;48.49;67.14;;
58303;Laerm;44109;52.398;7.024;2023-12-28T13:04:28;57.45;50.02;65.58;;
58303;Laerm;44109;52.398;7.024;2023-12-28T13:06:59;57.35;50.54;70.28;;
58303;Laerm;44109;52.398;7.024;2023-12-28T13:09:27;53.86;48.40;64.30;;
58303;Laerm;44109;52.398;7.024;2023-12-28T13:11:54;54.43;47.32;76.48;;
58303;Laerm;44109;52.398;7.024;2023-12-28T13:14:25;54.03;48.11;61.93;;
58303;Laerm;44109;52.398;7.024;2023-12-28T13:16:53;56.57;49.50;64.17;;
58303;Laerm;44109;52.398;7.024;2023-12-28T13:19:21;55.35;46.51;71.65;;
58303;Laerm;44109;52.398;7.024;2023-12-28T13:21:49;53.84;47.59;61.29;;
58303;Laerm;44109;52.398;7.024;2023-12-28T13:24:18;53.91;48.50;67.63;;
58303;Laerm;44109;52.398;7.024;2023-12-28T13:26:45;52.43;47.16;59.13;;
58303;Laerm;44109;52.398;7.024;2023-12-28T13:29:13;54.60;47.10;65.47;;
58303;Laerm;44109;52.398;7.024;2023-12-28T13:31:41;57.84;48.03;75.22;;
58303;Laerm;44109;52.398;7.024;2023-12-28T13:34:12;55.89;48.65;73.14;;
58303;Laerm;44109;52.398;7.024;2023-12-28T13:36:39;52.69;47.16;66.03;;
58303;Laerm;44109;52.398;7.024;2023-12-28T13:39:07;54.22;48.81;63.62;;
58303;Laerm;44109;52.398;7.024;2023-12-28T13:41:38;53.90;47.26;76.59;;
58303;Laerm;44109;52.398;7.024;2023-12-28T13:44:06;52.83;47.44;61.89;;
58303;Laerm;44109;52.398;7.024;2023-12-28T13:46:39;55.66;47.43;75.81;;
58303;Laerm;44109;52.398;7.024;2023-12-28T13:49:07;53.58;46.70;65.89;;
58303;Laerm;44109;52.398;7.024;2023-12-28T13:51:34;52.65;45.48;70.47;;
58303;Laerm;44109;52.398;7.024;2023-12-28T13:54:02;53.11;46.51;63.45;;
58303;Laerm;44109;52.398;7.024;2023-12-28T13:56:30;53.31;46.86;64.53;;
58303;Laerm;44109;52.398;7.024;2023-12-28T13:58:59;52.21;46.34;59.96;;
58303;Laerm;44109;52.398;7.024;2023-12-28T14:01:29;55.17;48.85;73.78;;
58303;Laerm;44109;52.398;7.024;2023-12-28T14:03:57;52.53;47.22;60.45;;
58303;Laerm;44109;52.398;7.024;2023-12-28T14:06:24;54.74;49.03;69.06;;
58303;Laerm;44109;52.398;7.024;2023-12-28T14:08:53;57.28;47.63;69.78;;
58303;Laerm;44109;52.398;7.024;2023-12-28T14:11:21;59.60;53.81;70.33;;
58303;Laerm;44109;52.398;7.024;2023-12-28T14:13:48;59.01;53.69;73.30;;
58303;Laerm;44109;52.398;7.024;2023-12-28T14:16:18;57.69;53.11;70.06;;
58303;Laerm;44109;52.398;7.024;2023-12-28T14:18:45;57.83;52.91;75.58;;
58303;Laerm;44109;52.398;7.024;2023-12-28T14:21:15;57.85;53.64;72.39;;
58303;Laerm;44109;52.398;7.024;2023-12-28T14:23:44;58.61;53.96;66.23;;
58303;Laerm;44109;52.398;7.024;2023-12-28T14:26:14;58.80;54.11;67.40;;
58303;Laerm;44109;52.398;7.024;2023-12-28T14:28:43;59.02;54.99;65.86;;
58303;Laerm;44109;52.398;7.024;2023-12-28T14:31:12;57.78;52.35;67.54;;
58303;Laerm;44109;52.398;7.024;2023-12-28T14:33:42;56.43;47.63;66.97;;
58303;Laerm;44109;52.398;7.024;2023-12-28T14:36:25;54.79;47.21;71.10;;
58303;Laerm;44109;52.398;7.024;2023-12-28T14:38:55;52.41;46.48;60.83;;
58303;Laerm;44109;52.398;7.024;2023-12-28T14:41:23;55.09;45.59;69.80;;
58303;Laerm;44109;52.398;7.024;2023-12-28T14:43:51;52.51;46.65;58.17;;
58303;Laerm;44109;52.398;7.024;2023-12-28T14:46:19;53.57;47.36;68.67;;
58303;Laerm;44109;52.398;7.024;2023-12-28T14:48:48;54.45;47.01;70.04;;
58303;Laerm;44109;52.398;7.024;2023-12-28T14:51:16;55.21;47.98;70.85;;
58303;Laerm;44109;52.398;7.024;2023-12-28T14:53:44;55.95;47.60;67.39;;
58303;Laerm;44109;52.398;7.024;2023-12-28T14:56:12;53.16;47.34;67.37;;
58303;Laerm;44109;52.398;7.024;2023-12-28T14:58:41;52.88;47.63;61.29;;
58303;Laerm;44109;52.398;7.024;2023-12-28T15:01:13;53.73;46.13;66.93;;
58303;Laerm;44109;52.398;7.024;2023-12-28T15:03:43;53.59;48.34;71.21;;
58303;Laerm;44109;52.398;7.024;2023-12-28T15:06:12;52.74;46.29;63.23;;
58303;Laerm;44109;52.398;7.024;2023-12-28T15:08:38;55.56;45.75;69.21;;
58303;Laerm;44109;52.398;7.024;2023-12-28T15:11:08;54.74;46.15;66.47;;
58303;Laerm;44109;52.398;7.024;2023-12-28T15:13:38;54.91;45.86;66.99;;
58303;Laerm;44109;52.398;7.024;2023-12-28T15:16:10;55.44;48.34;66.47;;
58303;Laerm;44109;52.398;7.024;2023-12-28T15:18:39;53.18;47.78;67.52;;
58303;Laerm;44109;52.398;7.024;2023-12-28T15:21:08;54.25;48.06;62.45;;
58303;Laerm;44109;52.398;7.024;2023-12-28T15:23:38;56.33;46.46;68.04;;
58303;Laerm;44109;52.398;7.024;2023-12-28T15:26:08;55.12;47.99;68.50;;
58303;Laerm;44109;52.398;7.024;2023-12-28T15:28:36;54.54;47.53;66.38;;
58303;Laerm;44109;52.398;7.024;2023-12-28T15:31:03;53.23;46.18;78.07;;
58303;Laerm;44109;52.398;7.024;2023-12-28T15:33:31;54.12;46.50;75.88;;
58303;Laerm;44109;52.398;7.024;2023-12-28T15:35:58;51.36;44.91;61.53;;
58303;Laerm;44109;52.398;7.024;2023-12-28T15:38:27;56.58;48.12;79.71;;
58303;Laerm;44109;52.398;7.024;2023-12-28T15:40:58;53.43;45.58;71.22;;
58303;Laerm;44109;52.398;7.024;2023-12-28T15:43:26;57.00;43.86;75.17;;
58303;Laerm;44109;52.398;7.024;2023-12-28T15:45:53;60.18;46.35;83.68;;
58303;Laerm;44109;52.398;7.024;2023-12-28T15:48:21;52.99;45.78;65.39;;
58303;Laerm;44109;52.398;7.024;2023-12-28T15:50:51;54.89;46.41;67.59;;
58303;Laerm;44109;52.398;7.024;2023-12-28T15:53:18;52.54;45.55;63.15;;
58303;Laerm;44109;52.398;7.024;2023-12-28T15:55:46;52.55;45.49;67.03;;
58303;Laerm;44109;52.398;7.024;2023-12-28T15:58:15;54.08;45.67;66.63;;
58303;Laerm;44109;52.398;7.024;2023-12-28T16:00:53;52.87;45.02;70.74;;
58303;Laerm;44109;52.398;7.024;2023-12-28T16:03:21;53.76;47.03;68.68;;
58303;Laerm;44109;52.398;7.024;2023-12-28T16:05:51;50.97;44.86;60.91;;
58303;Laerm;44109;52.398;7.024;2023-12-28T16:08:18;52.83;46.75;61.52;;
58303;Laerm;44109;52.398;7.024;2023-12-28T16:10:46;52.20;45.40;58.20;;
58303;Laerm;44109;52.398;7.024;2023-12-28T16:13:17;54.41;44.80;72.37;;
58303;Laerm;44109;52.398;7.024;2023-12-28T16:15:47;51.60;44.74;60.57;;
58303;Laerm;44109;52.398;7.024;2023-12-28T16:18:17;53.21;45.42;72.45;;
58303;Laerm;44109;52.398;7.024;2023-12-28T16:20:45;51.64;44.35;64.53;;
58303;Laerm;44109;52.398;7.024;2023-12-28T16:23:14;52.58;43.87;64.13;;
58303;Laerm;44109;52.398;7.024;2023-12-28T16:25:41;52.87;42.22;62.76;;
58303;Laerm;44109;52.398;7.024;2023-12-28T16:28:09;53.58;47.32;63.85;;
58303;Laerm;44109;52.398;7.024;2023-12-28T16:30:38;53.44;44.95;69.58;;
58303;Laerm;44109;52.398;7.024;2023-12-28T16:33:06;52.24;45.10;64.43;;
58303;Laerm;44109;52.398;7.024;2023-12-28T16:35:34;53.97;44.23;77.04;;
58303;Laerm;44109;52.398;7.024;2023-12-28T16:38:02;50.95;44.02;65.14;;
58303;Laerm;44109;52.398;7.024;2023-12-28T16:40:29;51.42;44.09;67.06;;
58303;Laerm;44109;52.398;7.024;2023-12-28T16:42:57;55.50;46.96;72.84;;
58303;Laerm;44109;52.398;7.024;2023-12-28T16:45:24;53.02;43.67;66.82;;
58303;Laerm;44109;52.398;7.024;2023-12-28T16:47:53;56.02;46.15;65.88;;
58303;Laerm;44109;52.398;7.024;2023-12-28T16:50:24;53.87;46.24;69.87;;
58303;Laerm;44109;52.398;7.024;2023-12-28T16:52:53;54.46;46.84;69.90;;